createdAt,value
2023-03-17T00:01:25.672Z,8.50
2023-03-17T00:03:53.951Z,8.30
2023-03-17T00:06:27.921Z,8.20
2023-03-17T00:08:57.411Z,8.20
2023-03-17T00:11:28.324Z,8.30
2023-03-17T00:13:56.714Z,8.20
2023-03-17T00:16:27.153Z,8.30
2023-03-17T00:18:56.766Z,8.30
2023-03-17T00:21:28.988Z,8.20
2023-03-17T00:23:57.451Z,8.20
2023-03-17T00:26:28.541Z,8.00
2023-03-17T00:28:56.889Z,8.00
2023-03-17T00:31:27.718Z,8.10
2023-03-17T00:33:56.569Z,8.10
2023-03-17T00:36:28.146Z,8.30
2023-03-17T00:38:57.344Z,8.30
2023-03-17T00:41:27.123Z,8.30
2023-03-17T00:43:55.463Z,8.30
2023-03-17T00:46:28.782Z,8.20
2023-03-17T00:48:57.240Z,8.10
2023-03-17T00:51:25.390Z,8.10
2023-03-17T00:53:53.517Z,8.00
2023-03-17T00:56:22.518Z,8.00
2023-03-17T00:58:52.314Z,8.20
2023-03-17T01:01:20.491Z,8.30
2023-03-17T01:03:48.639Z,8.30
2023-03-17T01:06:17.725Z,8.40
2023-03-17T01:08:46.592Z,8.50
2023-03-17T01:11:18.777Z,8.50
2023-03-17T01:13:47.024Z,8.60
2023-03-17T01:16:17.160Z,8.60
2023-03-17T01:18:45.733Z,8.60
2023-03-17T01:21:14.006Z,8.60
2023-03-17T01:23:42.323Z,8.50
2023-03-17T01:26:10.552Z,8.50
2023-03-17T01:28:39.255Z,8.50
2023-03-17T01:31:07.448Z,8.50
2023-03-17T01:33:36.875Z,8.60
2023-03-17T01:36:05.174Z,8.50
2023-03-17T01:38:33.307Z,8.50
2023-03-17T01:41:03.375Z,8.50
2023-03-17T01:43:31.973Z,8.60
2023-03-17T01:46:29.239Z,8.60
2023-03-17T01:49:11.010Z,8.60
2023-03-17T01:51:46.468Z,8.70
2023-03-17T01:54:23.043Z,8.60
2023-03-17T01:56:53.470Z,8.60
2023-03-17T01:59:27.882Z,8.70
2023-03-17T02:02:01.706Z,8.70
2023-03-17T02:04:31.639Z,8.80
2023-03-17T02:07:00.088Z,8.70
2023-03-17T02:09:29.456Z,8.70
2023-03-17T02:12:00.806Z,8.70
2023-03-17T02:14:30.079Z,8.60
2023-03-17T02:16:58.464Z,8.60
2023-03-17T02:19:26.887Z,8.50
2023-03-17T02:21:58.070Z,8.50
2023-03-17T02:24:32.007Z,8.40
2023-03-17T02:27:06.678Z,8.50
2023-03-17T02:29:37.934Z,8.50
2023-03-17T02:32:06.843Z,8.50
2023-03-17T02:34:35.723Z,8.50
2023-03-17T02:37:05.798Z,8.50
2023-03-17T02:39:33.903Z,8.50
2023-03-17T02:42:02.144Z,8.50
2023-03-17T02:44:30.204Z,8.50
2023-03-17T02:46:58.577Z,8.50
2023-03-17T02:49:27.253Z,8.50
2023-03-17T02:51:56.018Z,8.50
2023-03-17T02:54:25.600Z,8.50
2023-03-17T02:56:53.725Z,8.50
2023-03-17T02:59:22.195Z,8.50
2023-03-17T03:01:50.827Z,8.50
2023-03-17T03:04:20.126Z,8.60
2023-03-17T03:06:48.662Z,8.60
2023-03-17T03:09:17.799Z,8.60
2023-03-17T03:11:48.683Z,8.60
2023-03-17T03:14:17.356Z,8.60
2023-03-17T03:16:45.974Z,8.60
2023-03-17T03:19:14.314Z,8.60
2023-03-17T03:21:42.332Z,8.70
2023-03-17T03:24:11.010Z,8.60
2023-03-17T03:26:39.245Z,8.60
2023-03-17T03:29:09.071Z,8.60
2023-03-17T03:31:37.183Z,8.60
2023-03-17T03:34:05.286Z,8.60
2023-03-17T03:36:33.443Z,8.70
2023-03-17T03:39:02.099Z,8.60
2023-03-17T03:41:30.256Z,8.60
2023-03-17T03:43:58.370Z,8.60
2023-03-17T03:46:28.285Z,8.60
2023-03-17T03:48:56.637Z,8.60
2023-03-17T03:51:24.732Z,8.70
2023-03-17T03:53:52.782Z,8.60
2023-03-17T03:56:20.872Z,8.60
2023-03-17T03:58:49.002Z,8.50
2023-03-17T04:01:17.716Z,8.50
2023-03-17T04:03:47.421Z,8.50
2023-03-17T04:06:16.223Z,8.50
2023-03-17T04:08:44.469Z,8.60
2023-03-17T04:11:12.632Z,8.50
2023-03-17T04:13:40.732Z,8.50
2023-03-17T04:16:09.993Z,8.60
2023-03-17T04:18:38.296Z,8.50
2023-03-17T04:21:08.327Z,8.50
2023-03-17T04:23:36.469Z,8.50
2023-03-17T04:26:05.136Z,8.50
2023-03-17T04:28:33.259Z,8.50
2023-03-17T04:31:01.524Z,8.50
2023-03-17T04:33:29.682Z,8.50
2023-03-17T04:35:58.504Z,8.50
2023-03-17T04:38:28.161Z,8.40
2023-03-17T04:40:56.228Z,8.40
2023-03-17T04:43:24.436Z,8.40
2023-03-17T04:45:52.639Z,8.40
2023-03-17T04:48:21.030Z,8.40
2023-03-17T04:50:49.199Z,8.30
2023-03-17T04:53:17.730Z,8.30
2023-03-17T04:55:47.315Z,8.30
2023-03-17T04:58:29.550Z,8.30
2023-03-17T05:00:59.122Z,8.20
2023-03-17T05:03:28.572Z,8.20
2023-03-17T05:05:57.394Z,8.20
2023-03-17T05:08:25.726Z,8.10
2023-03-17T05:10:55.241Z,7.90
2023-03-17T05:13:23.383Z,7.80
2023-03-17T05:15:52.627Z,7.60
2023-03-17T05:18:22.032Z,7.50
2023-03-17T05:20:50.170Z,7.50
2023-03-17T05:23:18.375Z,7.50
2023-03-17T05:25:46.824Z,7.40
2023-03-17T05:28:16.806Z,7.20
2023-03-17T05:30:45.927Z,7.10
2023-03-17T05:33:14.591Z,7.20
2023-03-17T05:35:42.979Z,7.10
2023-03-17T05:38:12.667Z,7.10
2023-03-17T05:40:41.120Z,7.20
2023-03-17T05:43:09.363Z,7.10
2023-03-17T05:45:39.308Z,7.00
2023-03-17T05:48:07.585Z,7.00
2023-03-17T05:50:35.928Z,7.00
2023-03-17T05:53:03.962Z,7.00
2023-03-17T05:55:32.061Z,7.20
2023-03-17T05:58:00.892Z,7.40
2023-03-17T06:00:29.640Z,7.40
2023-03-17T06:02:59.263Z,7.40
2023-03-17T06:05:27.506Z,7.40
2023-03-17T06:07:56.606Z,7.50
2023-03-17T06:10:25.489Z,7.40
2023-03-17T06:12:53.877Z,7.30
2023-03-17T06:15:22.461Z,7.40
2023-03-17T06:17:50.524Z,7.40
2023-03-17T06:20:21.075Z,7.50
2023-03-17T06:23:03.424Z,7.50
2023-03-17T06:25:33.294Z,7.50
2023-03-17T06:28:03.829Z,7.60
2023-03-17T06:30:32.874Z,7.50
2023-03-17T06:33:01.379Z,7.50
2023-03-17T06:35:32.144Z,7.40
2023-03-17T06:38:00.942Z,7.50
2023-03-17T06:40:29.263Z,7.70
2023-03-17T06:42:57.922Z,7.90
2023-03-17T06:45:26.729Z,8.10
2023-03-17T06:47:54.956Z,8.20
2023-03-17T06:50:23.131Z,8.40
2023-03-17T06:52:52.596Z,8.80
2023-03-17T06:55:21.595Z,9.00
2023-03-17T06:57:51.157Z,9.30
2023-03-17T07:00:21.080Z,9.50
2023-03-17T07:02:49.520Z,9.70
2023-03-17T07:05:17.973Z,9.80
2023-03-17T07:07:46.463Z,9.90
2023-03-17T07:10:17.318Z,10.00
2023-03-17T07:12:46.036Z,10.00
2023-03-17T07:15:14.177Z,10.10
2023-03-17T07:17:42.561Z,10.20
2023-03-17T07:20:12.061Z,10.20
2023-03-17T07:22:40.356Z,10.30
2023-03-17T07:25:09.726Z,10.30
2023-03-17T07:27:39.365Z,10.40
2023-03-17T07:30:08.943Z,10.50
2023-03-17T07:32:37.728Z,10.60
2023-03-17T07:35:08.257Z,10.60
2023-03-17T07:37:36.439Z,10.70
2023-03-17T07:40:06.535Z,10.80
2023-03-17T07:42:34.716Z,10.80
2023-03-17T07:45:06.076Z,10.80
2023-03-17T07:47:34.524Z,10.90
2023-03-17T07:50:03.063Z,11.10
2023-03-17T07:52:31.346Z,11.10
2023-03-17T07:54:59.732Z,11.20
2023-03-17T07:57:28.789Z,11.40
2023-03-17T07:59:58.594Z,11.40
2023-03-17T08:02:29.157Z,11.60
2023-03-17T08:04:58.048Z,11.70
2023-03-17T08:07:26.616Z,11.90
2023-03-17T08:09:55.074Z,12.00
2023-03-17T08:12:24.043Z,12.10
2023-03-17T08:14:52.528Z,12.30
2023-03-17T08:17:21.131Z,12.70
2023-03-17T08:19:51.340Z,12.90
2023-03-17T08:22:19.784Z,13.10
2023-03-17T08:24:48.958Z,13.20
2023-03-17T08:27:17.208Z,13.40
2023-03-17T08:29:45.540Z,13.40
2023-03-17T08:32:14.328Z,13.50
2023-03-17T08:34:44.498Z,13.80
2023-03-17T08:37:16.049Z,14.00
2023-03-17T08:39:45.087Z,14.10
2023-03-17T08:42:15.171Z,14.00
2023-03-17T08:44:44.133Z,14.10
2023-03-17T08:47:12.582Z,14.30
2023-03-17T08:49:41.110Z,14.40
2023-03-17T08:52:10.027Z,14.50
2023-03-17T08:54:39.632Z,15.30
2023-03-17T08:57:08.703Z,15.00
2023-03-17T08:59:37.209Z,14.80
2023-03-17T09:02:05.808Z,14.70
2023-03-17T09:04:34.075Z,14.30
2023-03-17T09:07:04.228Z,14.00
2023-03-17T09:09:34.590Z,14.10
2023-03-17T09:12:06.469Z,14.30
2023-03-17T09:14:43.324Z,14.30
2023-03-17T09:17:15.925Z,14.60
2023-03-17T09:19:45.072Z,15.20
2023-03-17T09:22:14.940Z,15.30
2023-03-17T09:24:43.358Z,15.50
2023-03-17T09:27:13.448Z,15.20
2023-03-17T09:29:42.483Z,15.40
2023-03-17T09:32:11.293Z,15.70
2023-03-17T09:34:39.621Z,16.50
2023-03-17T09:37:09.954Z,17.40
2023-03-17T09:39:38.669Z,19.20
2023-03-17T09:42:23.337Z,20.10
2023-03-17T09:45:06.615Z,20.40
2023-03-17T09:47:52.257Z,21.30
2023-03-17T09:50:26.878Z,22.60
2023-03-17T09:52:58.423Z,23.10
2023-03-17T09:55:30.046Z,23.10
2023-03-17T09:58:01.148Z,23.30
2023-03-17T10:00:31.320Z,23.20
2023-03-17T10:03:01.722Z,23.40
2023-03-17T10:05:32.130Z,23.80
2023-03-17T10:08:22.660Z,24.00
2023-03-17T10:11:03.149Z,23.50
2023-03-17T10:13:50.120Z,23.20
2023-03-17T10:16:21.877Z,22.70
2023-03-17T10:18:56.588Z,22.10
2023-03-17T10:21:29.793Z,21.80
2023-03-17T10:23:59.367Z,21.80
2023-03-17T10:26:32.873Z,21.50
2023-03-17T10:29:04.243Z,20.90
2023-03-17T10:31:35.608Z,20.10
2023-03-17T10:34:14.703Z,20.70
2023-03-17T10:36:47.058Z,21.70
2023-03-17T10:39:20.073Z,22.30
2023-03-17T10:41:55.728Z,22.00
2023-03-17T10:44:43.996Z,22.20
2023-03-17T10:47:32.791Z,22.90
2023-03-17T10:50:05.619Z,23.70
2023-03-17T10:52:39.648Z,23.60
2023-03-17T10:55:10.695Z,23.30
2023-03-17T10:57:39.975Z,23.00
2023-03-17T11:00:20.011Z,22.60
2023-03-17T11:02:52.734Z,22.80
2023-03-17T11:05:23.384Z,22.60
2023-03-17T11:07:58.083Z,22.10
2023-03-17T11:10:29.371Z,22.50
2023-03-17T11:13:02.079Z,23.10
2023-03-17T11:15:35.919Z,23.20
2023-03-17T11:18:06.029Z,23.40
2023-03-17T11:20:51.567Z,23.20
2023-03-17T11:23:29.858Z,22.40
2023-03-17T11:26:07.440Z,21.90
2023-03-17T11:28:41.134Z,22.00
2023-03-17T11:31:17.798Z,22.20
2023-03-17T11:33:57.105Z,22.50
2023-03-17T11:36:41.926Z,22.30
2023-03-17T11:39:14.163Z,21.20
2023-03-17T11:41:59.282Z,20.70
2023-03-17T11:44:52.891Z,20.40
2023-03-17T11:47:42.879Z,20.20
2023-03-17T11:50:22.163Z,20.00
2023-03-17T11:53:07.297Z,19.60
2023-03-17T11:55:44.644Z,19.60
2023-03-17T11:58:22.970Z,19.50
2023-03-17T12:00:54.985Z,19.60
2023-03-17T12:03:33.430Z,19.50
2023-03-17T12:06:05.820Z,19.40
2023-03-17T12:08:40.601Z,19.30
2023-03-17T12:11:12.140Z,19.30
2023-03-17T12:13:46.012Z,19.20
2023-03-17T12:16:19.367Z,19.30
2023-03-17T12:18:59.156Z,19.20
2023-03-17T12:21:34.408Z,19.20
2023-03-17T12:24:11.507Z,19.20
2023-03-17T12:26:45.621Z,19.20
2023-03-17T12:29:17.834Z,19.20
2023-03-17T12:31:53.771Z,19.10
2023-03-17T12:34:30.162Z,19.00
2023-03-17T12:36:59.153Z,19.00
2023-03-17T12:39:32.089Z,19.00
2023-03-17T12:42:15.355Z,19.00
2023-03-17T12:45:05.382Z,19.10
2023-03-17T12:47:59.748Z,19.10
2023-03-17T12:50:52.163Z,19.10
2023-03-17T12:53:29.735Z,19.10
2023-03-17T12:56:03.878Z,19.10
2023-03-17T12:58:37.112Z,19.00
2023-03-17T13:01:13.193Z,19.00
2023-03-17T13:03:58.564Z,18.90
2023-03-17T13:06:32.498Z,18.90
2023-03-17T13:09:43.727Z,18.90
2023-03-17T13:12:56.487Z,18.80
2023-03-17T13:15:55.807Z,18.90
2023-03-17T13:18:48.075Z,18.90
2023-03-17T13:21:20.842Z,18.80
2023-03-17T13:23:55.410Z,18.80
2023-03-17T13:26:40.961Z,18.80
2023-03-17T13:29:25.957Z,18.80
2023-03-17T13:32:14.992Z,18.90
2023-03-17T13:34:50.088Z,18.80
2023-03-17T13:37:27.628Z,18.90
2023-03-17T13:40:11.045Z,18.80
2023-03-17T13:43:00.018Z,18.80
2023-03-17T13:45:38.475Z,18.80
2023-03-17T13:48:34.143Z,18.80
2023-03-17T13:51:14.973Z,18.80
2023-03-17T13:53:50.021Z,18.80
2023-03-17T13:56:22.758Z,18.80
2023-03-17T13:59:09.140Z,18.80
2023-03-17T14:01:45.175Z,18.90
2023-03-17T14:04:23.905Z,18.90
2023-03-17T14:06:55.000Z,18.90
2023-03-17T14:09:38.117Z,18.90
2023-03-17T14:12:13.580Z,18.90
2023-03-17T14:14:50.560Z,18.90
2023-03-17T14:17:23.651Z,18.90
2023-03-17T14:20:06.355Z,18.90
2023-03-17T14:22:41.175Z,18.90
2023-03-17T14:25:17.767Z,19.00
2023-03-17T14:27:47.113Z,18.90
2023-03-17T14:30:20.926Z,18.90
2023-03-17T14:33:02.859Z,19.00
2023-03-17T14:35:32.660Z,18.90
2023-03-17T14:38:02.060Z,18.80
2023-03-17T14:40:36.774Z,18.80
2023-03-17T14:43:05.352Z,18.70
2023-03-17T14:45:48.024Z,18.70
2023-03-17T14:48:22.076Z,18.70
2023-03-17T14:50:53.285Z,18.80
2023-03-17T14:53:22.444Z,18.80
2023-03-17T14:55:52.216Z,18.80
2023-03-17T14:58:24.695Z,18.90
2023-03-17T15:00:59.070Z,18.80
2023-03-17T15:03:31.676Z,18.90
2023-03-17T15:06:20.040Z,18.80
2023-03-17T15:08:48.225Z,18.70
2023-03-17T15:11:20.404Z,18.70
2023-03-17T15:13:49.899Z,18.70
2023-03-17T15:16:23.291Z,18.70
2023-03-17T15:19:05.104Z,18.70
2023-03-17T15:21:41.266Z,18.70
2023-03-17T15:24:27.252Z,18.70
2023-03-17T15:27:06.520Z,18.60
2023-03-17T15:29:37.230Z,18.60
2023-03-17T15:32:15.422Z,18.60
2023-03-17T15:34:48.101Z,18.60
2023-03-17T15:37:19.339Z,18.50
2023-03-17T15:39:48.170Z,18.50
2023-03-17T15:42:18.480Z,18.50
2023-03-17T15:44:46.758Z,18.40
2023-03-17T15:47:16.673Z,18.50
2023-03-17T15:49:46.863Z,18.40
2023-03-17T15:52:21.636Z,18.40
2023-03-17T15:54:50.583Z,18.40
2023-03-17T15:57:19.041Z,18.40
2023-03-17T15:59:47.292Z,18.40
2023-03-17T16:02:28.858Z,18.40
2023-03-17T16:04:58.952Z,18.40
2023-03-17T16:07:27.507Z,18.30
2023-03-17T16:09:55.883Z,18.30
2023-03-17T16:12:24.240Z,18.30
2023-03-17T16:14:52.560Z,18.30
2023-03-17T16:17:26.964Z,18.20
2023-03-17T16:19:55.966Z,18.30
2023-03-17T16:22:38.197Z,18.20
2023-03-17T16:25:17.989Z,18.10
2023-03-17T16:27:46.154Z,18.10
2023-03-17T16:30:17.500Z,18.10
2023-03-17T16:32:45.779Z,18.10
2023-03-17T16:35:19.388Z,18.10
2023-03-17T16:37:51.936Z,18.00
2023-03-17T16:40:23.319Z,18.00
2023-03-17T16:42:52.010Z,18.00
2023-03-17T16:45:26.491Z,17.90
2023-03-17T16:47:55.250Z,17.90
2023-03-17T16:50:26.645Z,17.90
2023-03-17T16:52:56.180Z,17.80
2023-03-17T16:55:27.105Z,17.80
2023-03-17T16:57:58.448Z,17.70
2023-03-17T17:00:29.004Z,17.80
2023-03-17T17:02:57.403Z,17.70
2023-03-17T17:05:27.597Z,17.70
2023-03-17T17:07:58.346Z,17.60
2023-03-17T17:10:28.780Z,17.60
2023-03-17T17:12:57.253Z,17.60
2023-03-17T17:15:25.960Z,17.60
2023-03-17T17:17:57.826Z,17.50
2023-03-17T17:20:30.822Z,17.50
2023-03-17T17:23:02.195Z,17.40
2023-03-17T17:25:31.008Z,17.40
2023-03-17T17:28:00.287Z,17.30
2023-03-17T17:30:30.927Z,17.30
2023-03-17T17:33:01.433Z,17.30
2023-03-17T17:35:32.804Z,17.30
2023-03-17T17:38:02.847Z,17.20
2023-03-17T17:40:32.256Z,17.20
2023-03-17T17:43:02.474Z,17.10
2023-03-17T17:45:30.741Z,17.10
2023-03-17T17:47:58.981Z,17.10
2023-03-17T17:50:28.926Z,16.90
2023-03-17T17:53:02.833Z,16.90
2023-03-17T17:55:33.701Z,16.90
2023-03-17T17:58:02.025Z,17.00
2023-03-17T18:00:30.789Z,16.90
2023-03-17T18:02:59.009Z,16.90
2023-03-17T18:05:27.524Z,16.90
2023-03-17T18:07:55.971Z,16.80
2023-03-17T18:10:26.011Z,16.70
2023-03-17T18:12:56.184Z,16.70
2023-03-17T18:15:26.164Z,16.70
2023-03-17T18:17:54.770Z,16.70
2023-03-17T18:20:24.485Z,16.70
2023-03-17T18:22:54.269Z,16.60
2023-03-17T18:25:22.414Z,16.60
2023-03-17T18:27:50.695Z,16.60
2023-03-17T18:30:25.645Z,16.60
2023-03-17T18:32:58.514Z,16.60
2023-03-17T18:35:28.783Z,16.60
2023-03-17T18:37:58.546Z,16.50
2023-03-17T18:40:27.060Z,16.50
2023-03-17T18:42:55.902Z,16.50
2023-03-17T18:45:25.470Z,16.40
2023-03-17T18:47:53.767Z,16.40
2023-03-17T18:50:22.786Z,16.40
2023-03-17T18:52:51.370Z,16.30
2023-03-17T18:55:19.528Z,16.40
2023-03-17T18:57:48.633Z,16.30
2023-03-17T19:00:18.835Z,16.40
2023-03-17T19:02:48.742Z,16.30
2023-03-17T19:05:16.982Z,16.30
2023-03-17T19:07:45.320Z,16.30
2023-03-17T19:10:14.097Z,16.30
2023-03-17T19:12:43.722Z,16.20
2023-03-17T19:15:13.113Z,16.20
2023-03-17T19:17:41.740Z,16.20
2023-03-17T19:20:13.495Z,16.10
2023-03-17T19:22:41.892Z,16.10
2023-03-17T19:25:11.377Z,16.10
2023-03-17T19:27:39.953Z,16.10
2023-03-17T19:30:09.626Z,16.10
2023-03-17T19:32:38.437Z,16.10
2023-03-17T19:35:08.370Z,16.00
2023-03-17T19:37:38.448Z,16.00
2023-03-17T19:40:08.501Z,16.00
2023-03-17T19:42:36.777Z,15.90
2023-03-17T19:45:06.372Z,15.90
2023-03-17T19:47:35.689Z,15.90
2023-03-17T19:50:04.858Z,15.80
2023-03-17T19:52:34.033Z,15.80
2023-03-17T19:55:05.446Z,15.70
2023-03-17T19:57:36.157Z,15.80
2023-03-17T20:00:08.803Z,15.70
2023-03-17T20:02:36.977Z,15.70
2023-03-17T20:05:05.749Z,15.70
2023-03-17T20:07:34.107Z,15.60
2023-03-17T20:10:04.140Z,15.60
2023-03-17T20:12:33.621Z,15.60
2023-03-17T20:15:02.890Z,15.50
2023-03-17T20:17:31.424Z,15.60
2023-03-17T20:19:59.881Z,15.50
2023-03-17T20:22:29.893Z,15.50
2023-03-17T20:24:58.583Z,15.50
2023-03-17T20:27:28.176Z,15.50
2023-03-17T20:29:56.735Z,15.50
2023-03-17T20:32:26.514Z,15.40
2023-03-17T20:34:55.506Z,15.40
2023-03-17T20:37:24.856Z,15.40
2023-03-17T20:39:54.288Z,15.30
2023-03-17T20:42:22.911Z,15.30
2023-03-17T20:44:53.280Z,15.30
2023-03-17T20:47:22.113Z,15.20
2023-03-17T20:49:50.739Z,15.20
2023-03-17T20:52:19.032Z,15.10
2023-03-17T20:54:47.426Z,15.10
2023-03-17T20:57:16.043Z,15.10
2023-03-17T20:59:45.283Z,15.00
2023-03-17T21:02:18.531Z,15.00
2023-03-17T21:04:48.987Z,15.00
2023-03-17T21:07:18.661Z,14.90
2023-03-17T21:09:47.664Z,14.90
2023-03-17T21:12:18.234Z,15.00
2023-03-17T21:14:46.549Z,15.00
2023-03-17T21:17:18.091Z,15.00
2023-03-17T21:19:47.486Z,15.00
2023-03-17T21:22:16.055Z,14.90
2023-03-17T21:24:44.340Z,14.90
2023-03-17T21:27:15.777Z,14.90
2023-03-17T21:29:43.881Z,14.90
2023-03-17T21:32:12.225Z,14.90
2023-03-17T21:34:41.958Z,14.90
2023-03-17T21:37:10.951Z,14.90
2023-03-17T21:39:39.212Z,14.90
2023-03-17T21:42:09.695Z,14.90
2023-03-17T21:44:38.441Z,14.80
2023-03-17T21:47:07.703Z,14.70
2023-03-17T21:49:35.926Z,14.60
2023-03-17T21:52:05.580Z,14.50
2023-03-17T21:54:35.099Z,14.60
2023-03-17T21:57:03.262Z,14.70
2023-03-17T21:59:34.381Z,14.70
2023-03-17T22:02:02.893Z,14.70
2023-03-17T22:04:31.069Z,14.60
2023-03-17T22:06:59.602Z,14.50
2023-03-17T22:09:29.281Z,14.60
2023-03-17T22:11:57.634Z,14.60
2023-03-17T22:14:25.938Z,14.60
2023-03-17T22:16:54.287Z,14.50
2023-03-17T22:19:22.485Z,14.50
2023-03-17T22:21:51.808Z,14.60
2023-03-17T22:24:20.537Z,14.60
2023-03-17T22:26:50.072Z,14.70
2023-03-17T22:29:18.697Z,14.70
2023-03-17T22:31:47.332Z,14.60
2023-03-17T22:34:16.124Z,14.60
2023-03-17T22:36:44.253Z,14.50
2023-03-17T22:39:12.411Z,14.50
2023-03-17T22:41:40.996Z,14.50
2023-03-17T22:44:11.624Z,14.50
2023-03-17T22:46:41.527Z,14.50
2023-03-17T22:49:10.020Z,14.50
2023-03-17T22:51:41.177Z,14.50
2023-03-17T22:54:11.378Z,14.50
2023-03-17T22:56:39.572Z,14.50
2023-03-17T22:59:07.824Z,14.40
2023-03-17T23:01:37.386Z,14.40
2023-03-17T23:04:06.575Z,14.30
2023-03-17T23:06:35.934Z,14.40
2023-03-17T23:09:04.833Z,14.40
2023-03-17T23:11:33.030Z,14.40
2023-03-17T23:14:01.211Z,14.40
2023-03-17T23:16:29.384Z,14.40
2023-03-17T23:18:58.987Z,14.40
2023-03-17T23:21:30.621Z,14.40
2023-03-17T23:23:58.834Z,14.40
2023-03-17T23:26:27.614Z,14.30
2023-03-17T23:28:55.831Z,14.30
2023-03-17T23:31:24.711Z,14.20
2023-03-17T23:33:52.917Z,14.20
2023-03-17T23:36:22.431Z,14.20
2023-03-17T23:38:52.233Z,14.20
2023-03-17T23:41:20.519Z,14.20
2023-03-17T23:43:49.069Z,14.20
2023-03-17T23:46:17.341Z,14.20
2023-03-17T23:48:45.698Z,14.10
2023-03-17T23:51:14.440Z,14.20
2023-03-17T23:53:43.922Z,14.20
2023-03-17T23:56:13.361Z,14.20
2023-03-17T23:58:42.538Z,14.20
